Time;durP1;ratioP1;P1;durP2;ratioP2;P2;SDS_P1;SDS_P2;PMS_P1;PMS_P2;Temp;Humidity;BMP_temperature;BMP_pressure;BME280_temperature;BME280_humidity;BME280_pressure;Samples;Min_cycle;Max_cycle;Signal;HPM_P1;HPM_P2
2023/01/18 00:00:46;;;;;;;56.17;24.83;;;-1.60;72.70;;;;;;5015812;28;20113;-67
2023/01/18 00:03:13;;;;;;;72.47;24.13;;;-1.60;72.60;;;;;;5017600;28;20060;-68
2023/01/18 00:05:40;;;;;;;45.03;21.60;;;-1.50;72.30;;;;;;5015270;28;20033;-68
2023/01/18 00:08:14;;;;;;;90.13;24.80;;;-1.50;72.80;;;;;;5015865;28;20028;-68
2023/01/18 00:10:40;;;;;;;162.40;30.58;;;-1.60;73.30;;;;;;4997198;28;20498;-67
2023/01/18 00:13:06;;;;;;;58.00;25.00;;;-1.60;73.30;;;;;;5013334;28;20032;-68
2023/01/18 00:15:33;;;;;;;87.50;27.45;;;-1.70;74.10;;;;;;5018603;28;20101;-68
2023/01/18 00:17:59;;;;;;;103.72;39.13;;;-1.70;73.50;;;;;;5021413;28;20033;-68
2023/01/18 00:20:26;;;;;;;114.55;37.90;;;-1.70;72.80;;;;;;5015745;28;20040;-68
2023/01/18 00:22:52;;;;;;;245.23;83.13;;;-1.70;72.60;;;;;;5013940;28;20034;-68
2023/01/18 00:25:22;;;;;;;162.55;50.42;;;-1.70;73.20;;;;;;5016815;28;20033;-67
2023/01/18 00:27:50;;;;;;;72.38;27.58;;;-1.70;73.10;;;;;;5017335;28;20030;-68
2023/01/18 00:30:19;;;;;;;112.28;30.45;;;-1.70;72.90;;;;;;5002843;28;20092;-68
2023/01/18 00:32:45;;;;;;;78.88;28.65;;;-1.70;73.00;;;;;;4999945;28;20465;-68
2023/01/18 00:35:11;;;;;;;64.85;27.65;;;-1.70;72.40;;;;;;5013808;28;20034;-67
2023/01/18 00:37:37;;;;;;;68.68;27.13;;;-1.70;72.60;;;;;;5012720;28;20642;-68
2023/01/18 00:40:05;;;;;;;58.83;27.45;;;-1.70;73.00;;;;;;5018106;28;20025;-68
2023/01/18 00:45:15;;;;;;;63.70;26.50;;;-1.60;72.50;;;;;;5015533;28;20865;-68
2023/01/18 00:47:41;;;;;;;72.80;28.67;;;-1.60;72.50;;;;;;5014463;28;20037;-68
2023/01/18 00:50:07;;;;;;;63.58;27.73;;;-1.60;72.80;;;;;;5023376;28;20381;-67
2023/01/18 00:52:33;;;;;;;54.17;26.30;;;-1.70;75.00;;;;;;5018375;28;20022;-68
2023/01/18 00:55:03;;;;;;;61.13;26.50;;;-1.80;74.50;;;;;;5016823;28;20105;-68
2023/01/18 00:57:29;;;;;;;76.22;27.98;;;-1.70;72.90;;;;;;5013662;28;20427;-68
2023/01/18 00:59:54;;;;;;;51.15;24.85;;;-1.70;72.70;;;;;;5023539;28;20028;-67
2023/01/18 01:02:20;;;;;;;107.00;38.33;;;-1.70;73.60;;;;;;5012750;28;20438;-68
2023/01/18 01:07:29;;;;;;;;;;;-1.70;73.40;;;;;;5009648;28;20060;-68
2023/01/18 01:09:56;;;;;;;61.95;27.27;;;-1.60;74.60;;;;;;5015694;28;19988;-67
2023/01/18 01:26:09;;;;;;;44.15;23.30;;;-1.90;77.30;;;;;;5015552;28;20145;-69
2023/01/18 01:28:43;;;;;;;36.47;18.95;;;-2.00;76.50;;;;;;5014496;28;20025;-67
2023/01/18 01:31:12;;;;;;;41.95;20.30;;;-2.00;74.70;;;;;;5005625;28;20065;-68
2023/01/18 01:33:37;;;;;;;41.33;20.08;;;-2.00;78.10;;;;;;4998069;28;20022;-68
2023/01/18 01:36:09;;;;;;;41.13;20.70;;;-2.10;77.70;;;;;;4997262;28;20052;-68
2023/01/18 01:38:34;;;;;;;37.55;18.40;;;-2.20;77.70;;;;;;5015066;28;20026;-68
2023/01/18 01:41:25;;;;;;;39.88;19.33;;;-2.20;76.70;;;;;;5014453;28;20033;-68
2023/01/18 01:43:54;;;;;;;40.83;19.77;;;-2.20;77.10;;;;;;5018983;28;20028;-67
2023/01/18 01:46:24;;;;;;;33.13;17.63;;;-2.30;77.60;;;;;;5020590;28;20021;-68
2023/01/18 01:48:54;;;;;;;34.80;17.13;;;-2.20;75.30;;;;;;4998410;28;20033;-67
2023/01/18 01:51:19;;;;;;;37.95;18.80;;;-2.20;75.10;;;;;;5014780;28;20081;-68
2023/01/18 01:53:47;;;;;;;32.72;17.13;;;-2.10;76.20;;;;;;5015612;28;20426;-68
2023/01/18 01:56:13;;;;;;;30.08;15.27;;;-2.10;75.30;;;;;;5012505;28;20437;-68
2023/01/18 01:58:39;;;;;;;29.38;15.40;;;-2.00;73.40;;;;;;5014911;28;20030;-69
2023/01/18 02:01:07;;;;;;;26.27;14.50;;;-1.90;74.60;;;;;;5013886;28;20430;-68
2023/01/18 02:03:38;;;;;;;27.98;15.30;;;-1.80;74.00;;;;;;5012449;28;20030;-68
2023/01/18 02:06:23;;;;;;;22.35;12.85;;;-1.80;76.10;;;;;;5005748;28;20304;-68
2023/01/18 02:08:48;;;;;;;22.23;12.15;;;-1.70;73.50;;;;;;5016085;28;20033;-68
2023/01/18 02:11:14;;;;;;;29.33;16.05;;;-1.50;73.70;;;;;;5020758;28;20050;-67
2023/01/18 02:13:40;;;;;;;26.98;14.93;;;-1.60;76.20;;;;;;5027636;28;20061;-68
2023/01/18 02:16:16;;;;;;;24.13;13.63;;;-1.60;77.00;;;;;;5033462;28;20022;-67
2023/01/18 02:18:52;;;;;;;25.13;13.80;;;-1.60;76.30;;;;;;5017572;28;20041;-67
2023/01/18 02:21:24;;;;;;;26.83;13.80;;;-1.60;76.20;;;;;;5013566;28;20025;-67
2023/01/18 02:24:14;;;;;;;23.88;13.23;;;-1.50;76.10;;;;;;5018455;28;20188;-68
2023/01/18 02:26:55;;;;;;;21.05;12.02;;;-1.50;75.90;;;;;;5016969;28;20075;-68
2023/01/18 02:29:43;;;;;;;22.15;12.18;;;-1.40;74.60;;;;;;4998018;28;20049;-68
2023/01/18 02:32:36;;;;;;;21.58;12.30;;;-1.30;76.10;;;;;;5016542;28;20034;-67
2023/01/18 02:35:10;;;;;;;24.70;13.23;;;-1.20;75.50;;;;;;5002999;28;20036;-67
2023/01/18 02:37:41;;;;;;;;;;;-1.20;75.60;;;;;;4998530;28;20038;-68
2023/01/18 02:40:27;;;;;;;22.33;12.48;;;-1.10;74.60;;;;;;5000923;28;19933;-68
2023/01/18 02:48:43;;;;;;;25.85;14.43;;;-0.80;75.90;;;;;;5020730;28;20091;-67
2023/01/18 02:51:09;;;;;;;19.40;12.10;;;-0.90;77.80;;;;;;5017064;28;20161;-67
2023/01/18 02:53:41;;;;;;;23.63;13.93;;;-0.90;77.70;;;;;;5017766;28;20389;-68
2023/01/18 02:56:16;;;;;;;20.92;12.45;;;-0.90;78.00;;;;;;5021982;28;20105;-67
2023/01/18 02:58:52;;;;;;;20.17;11.68;;;-0.90;77.20;;;;;;5026852;28;20370;-67
2023/01/18 03:01:37;;;;;;;25.73;13.43;;;-0.80;76.50;;;;;;5016720;28;20061;-67
2023/01/18 03:04:13;;;;;;;25.10;13.77;;;-0.80;78.30;;;;;;5018672;28;20117;-68
2023/01/18 03:06:45;;;;;;;25.63;14.20;;;-0.80;77.50;;;;;;5016092;28;20037;-66
2023/01/18 03:09:17;;;;;;;21.58;12.88;;;-0.80;77.60;;;;;;5017382;28;20450;-69
2023/01/18 03:11:53;;;;;;;27.20;14.38;;;-0.70;77.10;;;;;;5017691;28;20132;-68
2023/01/18 03:14:55;;;;;;;18.00;11.43;;;-0.80;78.40;;;;;;5018029;28;20037;-67
2023/01/18 03:17:32;;;;;;;19.70;12.52;;;-0.70;78.20;;;;;;4999235;28;20084;-68
2023/01/18 03:20:06;;;;;;;25.60;14.35;;;-0.70;78.20;;;;;;5016363;28;20060;-67
2023/01/18 03:25:49;;;;;;;26.90;14.23;;;-0.70;78.40;;;;;;5013531;28;20084;-67
2023/01/18 03:34:10;;;;;;;31.10;16.50;;;-0.50;79.80;;;;;;5016194;28;20053;-68
2023/01/18 03:36:40;;;;;;;23.27;14.27;;;-0.50;80.20;;;;;;5014519;28;20026;-68
2023/01/18 03:39:11;;;;;;;22.52;13.57;;;-0.40;79.60;;;;;;5015815;28;20508;-67
2023/01/18 03:41:42;;;;;;;22.25;12.43;;;-0.40;80.30;;;;;;5016045;28;20061;-67
2023/01/18 03:44:34;;;;;;;22.80;12.20;;;-0.40;81.20;;;;;;5016255;28;20407;-67
2023/01/18 03:47:02;;;;;;;20.52;12.10;;;-0.40;81.10;;;;;;5016348;28;20156;-68
2023/01/18 03:49:28;;;;;;;19.17;11.48;;;-0.40;81.00;;;;;;5016838;28;20113;-68
2023/01/18 03:52:00;;;;;;;24.85;13.07;;;-0.40;81.40;;;;;;5013787;28;20415;-68
2023/01/18 03:54:32;;;;;;;19.77;12.07;;;-0.40;81.10;;;;;;5016685;28;20037;-68
2023/01/18 03:57:13;;;;;;;20.52;12.23;;;-0.40;82.40;;;;;;5016810;28;20029;-68
2023/01/18 03:59:39;;;;;;;23.63;14.00;;;-0.40;81.90;;;;;;5014140;28;20030;-68
2023/01/18 04:02:06;;;;;;;24.65;15.27;;;-0.40;81.20;;;;;;5015547;28;20315;-68
2023/01/18 04:04:32;;;;;;;22.10;14.05;;;-0.30;82.20;;;;;;5014483;28;20034;-67
2023/01/18 04:06:58;;;;;;;21.73;14.57;;;-0.30;80.80;;;;;;5014443;28;20748;-67
2023/01/18 04:09:24;;;;;;;22.83;14.05;;;-0.30;83.10;;;;;;5016320;28;20112;-68
2023/01/18 04:11:50;;;;;;;24.92;13.65;;;-0.30;83.20;;;;;;5015358;28;20054;-68
2023/01/18 04:14:16;;;;;;;24.63;15.50;;;-0.20;83.00;;;;;;5017491;28;20030;-68
2023/01/18 04:16:42;;;;;;;25.92;17.10;;;-0.10;84.40;;;;;;5014508;28;20061;-68
2023/01/18 04:19:07;;;;;;;25.58;15.88;;;-0.20;86.70;;;;;;5013697;28;20057;-68
2023/01/18 04:21:33;;;;;;;26.70;16.73;;;-0.20;85.20;;;;;;5011545;28;20033;-67
2023/01/18 04:23:59;;;;;;;35.00;18.80;;;-0.30;85.50;;;;;;5021747;28;20030;-68
2023/01/18 04:26:25;;;;;;;29.05;17.67;;;-0.30;85.00;;;;;;5023451;28;20026;-68
2023/01/18 04:28:51;;;;;;;26.58;16.35;;;-0.20;84.00;;;;;;5014412;28;20029;-68
2023/01/18 04:31:16;;;;;;;25.73;16.30;;;-0.20;85.00;;;;;;5015247;28;20030;-67
2023/01/18 04:33:42;;;;;;;26.58;16.15;;;-0.30;84.70;;;;;;5019064;28;20108;-67
2023/01/18 04:36:07;;;;;;;28.25;17.02;;;-0.30;84.60;;;;;;5014376;28;20041;-67
2023/01/18 04:38:33;;;;;;;36.17;20.23;;;-0.30;84.60;;;;;;5009509;28;20030;-67
2023/01/18 04:41:03;;;;;;;32.00;19.65;;;-0.30;85.30;;;;;;5009795;28;20442;-67
2023/01/18 04:43:31;;;;;;;39.67;22.90;;;-0.30;84.70;;;;;;5013976;28;20096;-68
2023/01/18 04:45:57;;;;;;;43.95;24.25;;;-0.30;83.40;;;;;;5014476;28;20026;-66
2023/01/18 04:48:23;;;;;;;61.50;29.77;;;-0.40;83.30;;;;;;5015219;28;20117;-68
2023/01/18 04:50:49;;;;;;;40.08;22.85;;;-0.40;83.40;;;;;;5014479;28;20390;-66
2023/01/18 04:53:16;;;;;;;52.08;26.50;;;-0.50;83.70;;;;;;5016450;28;20049;-67
2023/01/18 04:55:42;;;;;;;49.72;27.20;;;-0.50;82.60;;;;;;5018278;28;20363;-67
2023/01/18 04:58:08;;;;;;;52.47;27.02;;;-0.50;82.00;;;;;;5015845;28;20167;-67
2023/01/18 05:00:33;;;;;;;54.17;27.80;;;-0.50;80.70;;;;;;5016247;28;20109;-68
2023/01/18 05:02:59;;;;;;;69.18;29.23;;;-0.60;83.10;;;;;;5014891;28;20102;-67
2023/01/18 05:05:24;;;;;;;78.43;31.02;;;-0.70;82.10;;;;;;5016414;28;20065;-68
2023/01/18 05:07:50;;;;;;;76.05;30.63;;;-0.70;80.70;;;;;;4997774;28;20387;-68
2023/01/18 05:10:16;;;;;;;92.95;30.92;;;-0.80;80.70;;;;;;5011293;28;20146;-68
2023/01/18 05:12:41;;;;;;;82.25;31.38;;;-0.90;79.90;;;;;;5014933;28;20342;-67
2023/01/18 05:15:08;;;;;;;78.32;31.95;;;-1.00;77.90;;;;;;5015254;28;20018;-67
2023/01/18 05:17:34;;;;;;;88.63;31.42;;;-0.90;76.90;;;;;;5015982;28;20022;-67
2023/01/18 05:20:05;;;;;;;77.45;31.33;;;-1.00;77.10;;;;;;5016050;28;20021;-67
2023/01/18 05:22:32;;;;;;;78.88;31.65;;;-1.00;76.10;;;;;;5014188;28;20429;-67
2023/01/18 05:24:57;;;;;;;79.38;30.77;;;-1.00;75.50;;;;;;5015948;28;20095;-67
2023/01/18 05:27:23;;;;;;;74.85;29.80;;;-1.00;75.00;;;;;;5015250;28;20026;-67
2023/01/18 05:29:49;;;;;;;75.78;30.45;;;-1.00;74.50;;;;;;5016081;28;20076;-67
2023/01/18 05:32:15;;;;;;;69.65;29.23;;;-1.00;74.30;;;;;;5016155;28;20026;-67
2023/01/18 05:34:41;;;;;;;54.30;24.85;;;-1.00;74.10;;;;;;4991055;28;20124;-67
2023/01/18 05:37:06;;;;;;;54.55;24.90;;;-1.00;74.00;;;;;;4997272;28;20026;-67
2023/01/18 05:39:32;;;;;;;62.25;25.85;;;-1.10;74.00;;;;;;4995925;28;20030;-67
2023/01/18 05:41:58;;;;;;;48.85;22.90;;;-1.00;73.60;;;;;;5014125;28;20064;-67
2023/01/18 05:44:23;;;;;;;46.05;22.27;;;-1.00;73.70;;;;;;4996856;28;20351;-67
2023/01/18 05:46:49;;;;;;;55.20;26.25;;;-1.10;73.40;;;;;;4999861;28;20026;-67
2023/01/18 05:49:14;;;;;;;54.20;25.40;;;-1.10;73.70;;;;;;5021600;28;20117;-67
2023/01/18 05:51:40;;;;;;;50.90;23.85;;;-1.10;73.90;;;;;;5019819;28;20057;-68
2023/01/18 05:54:06;;;;;;;37.85;19.85;;;-1.20;73.50;;;;;;5020029;28;20026;-67
2023/01/18 05:56:32;;;;;;;37.90;20.58;;;-1.10;73.20;;;;;;5018296;28;20419;-67
2023/01/18 05:58:57;;;;;;;34.22;19.02;;;-1.10;73.80;;;;;;5018978;28;20076;-67
2023/01/18 06:01:23;;;;;;;33.97;18.88;;;-1.20;73.90;;;;;;5021069;28;20100;-67
2023/01/18 06:03:49;;;;;;;33.67;18.92;;;-1.20;73.60;;;;;;5022037;28;20022;-67
2023/01/18 06:06:15;;;;;;;37.28;20.00;;;-1.10;74.20;;;;;;5021190;28;20033;-67
2023/01/18 06:08:41;;;;;;;36.08;21.38;;;-1.10;74.90;;;;;;5021526;28;20026;-67
2023/01/18 06:11:07;;;;;;;37.47;20.40;;;-1.20;74.70;;;;;;5019842;28;20076;-67
2023/01/18 06:13:32;;;;;;;31.27;17.65;;;-1.10;75.10;;;;;;5020916;28;20059;-67
2023/01/18 06:15:59;;;;;;;36.53;19.70;;;-1.20;75.00;;;;;;5016515;28;20167;-67
2023/01/18 06:18:28;;;;;;;29.88;17.20;;;-1.20;76.30;;;;;;5022258;28;20037;-68
2023/01/18 06:20:55;;;;;;;27.17;16.42;;;-1.20;76.10;;;;;;5019259;28;20034;-67
2023/01/18 06:23:23;;;;;;;35.60;19.02;;;-1.20;76.30;;;;;;5022288;28;20400;-67
2023/01/18 06:25:48;;;;;;;32.35;18.67;;;-1.20;76.50;;;;;;5019810;28;20366;-67
2023/01/18 06:28:15;;;;;;;33.55;19.13;;;-1.30;76.60;;;;;;5022094;28;20076;-67
2023/01/18 06:30:41;;;;;;;35.30;19.98;;;-1.30;75.60;;;;;;5021272;28;20030;-67
2023/01/18 06:33:07;;;;;;;34.38;18.98;;;-1.30;76.00;;;;;;5018451;28;20042;-67
2023/01/18 06:35:34;;;;;;;39.58;21.48;;;-1.30;75.60;;;;;;5002482;28;20065;-68
2023/01/18 06:37:59;;;;;;;34.85;18.88;;;-1.20;74.90;;;;;;5020764;28;20299;-67
2023/01/18 06:40:26;;;;;;;35.10;19.73;;;-1.20;74.50;;;;;;5020074;28;20018;-67
2023/01/18 06:42:51;;;;;;;32.90;19.05;;;-1.20;74.50;;;;;;5020087;28;20640;-67
2023/01/18 06:45:18;;;;;;;32.95;18.70;;;-1.20;74.60;;;;;;5018180;28;20026;-67
2023/01/18 06:47:44;;;;;;;37.50;20.15;;;-1.20;74.50;;;;;;5018605;28;20022;-68
2023/01/18 06:50:10;;;;;;;29.45;18.55;;;-1.20;74.90;;;;;;5020425;28;20076;-67
2023/01/18 06:52:36;;;;;;;32.00;18.92;;;-1.30;75.50;;;;;;5016316;28;20338;-67
2023/01/18 06:55:01;;;;;;;31.92;18.60;;;-1.30;74.60;;;;;;5021592;28;20030;-67
2023/01/18 06:57:29;;;;;;;38.47;21.75;;;-1.30;74.50;;;;;;5016657;28;20312;-67
2023/01/18 06:59:55;;;;;;;37.30;22.20;;;-1.20;74.60;;;;;;5014080;28;20426;-67
2023/01/18 07:02:20;;;;;;;42.33;27.80;;;-1.30;75.00;;;;;;5018447;28;20030;-66
2023/01/18 07:04:46;;;;;;;29.73;16.73;;;-1.30;75.00;;;;;;5016536;28;20041;-68
2023/01/18 07:07:15;;;;;;;30.58;19.55;;;-1.20;74.00;;;;;;5025079;28;20369;-68
2023/01/18 07:09:40;;;;;;;28.92;18.15;;;-1.30;74.70;;;;;;5000436;28;20022;-68
2023/01/18 07:12:06;;;;;;;30.52;18.27;;;-1.30;74.40;;;;;;5016450;28;20101;-68
2023/01/18 07:14:32;;;;;;;29.27;18.50;;;-1.30;73.60;;;;;;5017204;28;20055;-67
2023/01/18 07:16:57;;;;;;;30.52;17.95;;;-1.30;73.50;;;;;;5017704;28;20402;-68
2023/01/18 07:19:23;;;;;;;25.75;17.10;;;-1.30;73.60;;;;;;5018575;28;20034;-67
2023/01/18 07:21:50;;;;;;;32.80;18.70;;;-1.30;74.30;;;;;;5015062;28;20034;-67
2023/01/18 07:24:17;;;;;;;24.15;14.93;;;-1.30;73.60;;;;;;5018471;28;20038;-67
2023/01/18 07:26:43;;;;;;;23.05;14.38;;;-1.30;74.00;;;;;;5015668;28;20088;-67
2023/01/18 07:29:08;;;;;;;21.85;14.57;;;-1.30;75.00;;;;;;5018378;28;20022;-67
2023/01/18 07:31:36;;;;;;;19.73;12.80;;;-1.40;74.80;;;;;;5017102;28;20034;-67
2023/01/18 07:34:02;;;;;;;20.17;13.63;;;-1.40;74.00;;;;;;5018198;28;20021;-67
2023/01/18 07:36:28;;;;;;;33.50;21.50;;;-1.30;74.10;;;;;;4996367;28;20327;-67
2023/01/18 07:38:54;;;;;;;22.05;15.32;;;-1.30;74.90;;;;;;5017255;28;20107;-67
2023/01/18 07:41:21;;;;;;;20.15;13.80;;;-1.30;75.50;;;;;;5017173;28;20030;-67
2023/01/18 07:43:47;;;;;;;20.67;15.18;;;-1.30;75.10;;;;;;5018083;28;20319;-67
2023/01/18 07:46:17;;;;;;;21.05;15.05;;;-1.30;75.00;;;;;;4998241;28;20022;-67
2023/01/18 07:48:43;;;;;;;24.38;14.20;;;-1.30;74.70;;;;;;4999804;28;20034;-68
2023/01/18 07:51:10;;;;;;;22.58;14.88;;;-1.20;76.00;;;;;;5013550;28;20040;-68
2023/01/18 07:53:37;;;;;;;26.13;16.83;;;-1.20;76.40;;;;;;5017832;28;20433;-67
2023/01/18 07:56:05;;;;;;;34.20;20.48;;;-1.20;76.70;;;;;;5015655;28;20034;-67
2023/01/18 07:58:32;;;;;;;32.50;19.52;;;-1.30;77.70;;;;;;4999542;28;20036;-68
2023/01/18 08:01:06;;;;;;;20.77;13.48;;;-1.30;76.90;;;;;;4998003;28;20391;-67
2023/01/18 08:03:32;;;;;;;25.17;15.60;;;-1.30;78.10;;;;;;5000214;28;20076;-67
2023/01/18 08:05:58;;;;;;;27.42;16.63;;;-1.30;78.50;;;;;;5015404;28;20438;-68
2023/01/18 08:08:26;;;;;;;30.85;18.50;;;-1.30;78.50;;;;;;4999464;28;20026;-67
2023/01/18 08:10:55;;;;;;;21.05;14.23;;;-1.30;78.80;;;;;;5013907;28;20056;-67
2023/01/18 08:13:21;;;;;;;20.10;12.43;;;-1.30;79.30;;;;;;4999468;28;20336;-68
2023/01/18 08:15:46;;;;;;;19.25;12.45;;;-1.30;80.40;;;;;;5015388;28;20038;-67
2023/01/18 08:18:13;;;;;;;25.33;15.48;;;-1.20;81.70;;;;;;5016370;28;20034;-67
2023/01/18 08:20:41;;;;;;;20.25;13.02;;;-1.20;83.60;;;;;;5015788;28;20034;-68
2023/01/18 08:23:07;;;;;;;14.57;10.05;;;-1.20;83.90;;;;;;5016111;28;20045;-67
2023/01/18 08:25:32;;;;;;;17.55;12.68;;;-1.20;85.50;;;;;;5016707;28;20438;-67
2023/01/18 08:27:59;;;;;;;25.65;15.07;;;-1.10;85.60;;;;;;5016412;28;20065;-67
2023/01/18 08:30:29;;;;;;;25.70;15.70;;;-0.90;86.30;;;;;;5016433;28;20026;-67
2023/01/18 08:32:56;;;;;;;31.48;17.60;;;-0.90;88.20;;;;;;5010157;28;20025;-67
2023/01/18 08:35:25;;;;;;;27.02;15.45;;;-0.80;89.80;;;;;;5018097;28;20026;-67
2023/01/18 08:37:51;;;;;;;26.20;14.82;;;-0.70;91.50;;;;;;5035525;28;20032;-68
2023/01/18 08:40:18;;;;;;;26.17;16.95;;;-0.70;91.10;;;;;;5029229;28;20045;-67
2023/01/18 08:42:45;;;;;;;31.73;17.33;;;-0.70;91.10;;;;;;5015292;28;20030;-67
2023/01/18 08:45:11;;;;;;;20.63;11.80;;;-0.50;90.70;;;;;;5016916;28;20014;-67
2023/01/18 08:47:37;;;;;;;21.13;13.73;;;-0.40;94.40;;;;;;5015540;28;20041;-68
2023/01/18 08:50:02;;;;;;;18.30;11.77;;;-0.40;94.10;;;;;;5016872;28;20088;-67
2023/01/18 08:52:28;;;;;;;21.00;11.63;;;-0.40;95.60;;;;;;5013823;28;20034;-67
2023/01/18 08:54:54;;;;;;;14.18;9.13;;;-0.30;96.90;;;;;;5015623;28;20321;-67
2023/01/18 08:57:20;;;;;;;15.93;9.55;;;-0.20;96.90;;;;;;5016712;28;20025;-67
2023/01/18 08:59:45;;;;;;;20.15;13.10;;;-0.20;98.00;;;;;;5016559;28;20026;-67
2023/01/18 09:02:11;;;;;;;10.75;7.38;;;-0.20;97.60;;;;;;5015269;28;20447;-67
2023/01/18 09:04:37;;;;;;;17.80;10.70;;;-0.20;98.00;;;;;;5015130;28;20034;-67
2023/01/18 09:07:02;;;;;;;14.80;10.60;;;-0.20;98.00;;;;;;5014928;28;20415;-67
2023/01/18 09:09:28;;;;;;;20.55;13.45;;;-0.20;98.00;;;;;;5014067;28;20423;-67
2023/01/18 09:11:55;;;;;;;22.45;13.15;;;-0.10;97.70;;;;;;5015034;28;20045;-67
2023/01/18 09:14:21;;;;;;;15.13;9.68;;;0.10;98.00;;;;;;5015404;28;20033;-67
2023/01/18 09:16:46;;;;;;;13.57;8.32;;;0.00;98.00;;;;;;5016553;28;20085;-67
2023/01/18 09:19:13;;;;;;;15.05;9.85;;;-0.10;98.00;;;;;;5015370;28;20446;-67
2023/01/18 09:21:39;;;;;;;20.08;12.15;;;-0.10;98.00;;;;;;5013848;28;20057;-67
2023/01/18 09:24:05;;;;;;;18.95;10.10;;;-0.20;98.00;;;;;;5015303;28;20386;-67
2023/01/18 09:26:31;;;;;;;19.23;11.10;;;-0.30;98.00;;;;;;5016257;28;20076;-66
2023/01/18 09:28:56;;;;;;;13.13;8.23;;;-0.30;97.50;;;;;;5015406;28;20363;-68
2023/01/18 09:31:24;;;;;;;16.73;10.35;;;-0.20;98.00;;;;;;5015552;28;20030;-67
2023/01/18 09:33:50;;;;;;;14.90;10.65;;;-0.20;98.00;;;;;;5015394;28;20029;-67
2023/01/18 09:36:16;;;;;;;19.00;9.95;;;-0.10;98.00;;;;;;5015085;28;20030;-67
2023/01/18 09:38:44;;;;;;;19.58;9.15;;;0.00;98.00;;;;;;5014607;28;20052;-67
2023/01/18 09:41:37;;;;;;;16.95;10.07;;;0.10;98.00;;;;;;5015579;28;20326;-67
2023/01/18 09:44:15;;;;;;;11.13;7.93;;;0.20;98.00;;;;;;4963929;28;20035;-67
2023/01/18 09:46:41;;;;;;;12.32;7.82;;;0.10;98.00;;;;;;4996424;28;20023;-67
2023/01/18 09:49:32;;;;;;;11.50;7.78;;;0.00;98.00;;;;;;5009307;28;20022;-67
2023/01/18 09:52:18;;;;;;;12.52;8.20;;;0.10;98.00;;;;;;5013746;28;20062;-66
2023/01/18 09:54:59;;;;;;;12.63;7.75;;;0.20;98.00;;;;;;5015234;28;20084;-66
2023/01/18 09:57:36;;;;;;;10.93;6.95;;;0.20;98.00;;;;;;5016010;28;20030;-66
2023/01/18 10:00:08;;;;;;;14.65;8.65;;;0.20;98.00;;;;;;4996366;28;20035;-67
2023/01/18 10:02:38;;;;;;;15.25;9.63;;;0.30;98.00;;;;;;4979234;28;20058;-68
2023/01/18 10:05:24;;;;;;;13.70;8.70;;;0.30;98.00;;;;;;5015895;28;20140;-67
2023/01/18 10:08:01;;;;;;;14.25;9.60;;;0.40;98.00;;;;;;5012595;28;20088;-68
2023/01/18 10:10:32;;;;;;;10.23;7.10;;;0.50;98.00;;;;;;5026594;28;20347;-67
2023/01/18 10:13:41;;;;;;;13.07;7.53;;;0.40;98.00;;;;;;4996726;28;20022;-67
2023/01/18 10:16:15;;;;;;;15.90;8.77;;;0.30;98.00;;;;;;5015940;28;20026;-67
2023/01/18 10:18:44;;;;;;;13.32;7.93;;;0.20;98.00;;;;;;5013186;28;20018;-67
2023/01/18 10:21:25;;;;;;;12.07;7.80;;;0.30;98.00;;;;;;5013416;28;20318;-67
2023/01/18 10:24:00;;;;;;;15.32;9.05;;;0.20;98.00;;;;;;5015018;28;20022;-67
2023/01/18 10:26:30;;;;;;;11.70;7.25;;;0.30;98.00;;;;;;4998226;28;20209;-67
2023/01/18 10:29:13;;;;;;;12.88;7.55;;;0.30;98.00;;;;;;5013705;28;20029;-67
2023/01/18 10:31:56;;;;;;;11.68;7.15;;;0.20;98.00;;;;;;5015719;28;20414;-67
2023/01/18 10:34:25;;;;;;;11.38;7.57;;;0.00;98.00;;;;;;5017058;28;20057;-67
2023/01/18 10:36:56;;;;;;;18.85;10.15;;;-0.20;98.00;;;;;;5015990;28;20032;-67
2023/01/18 10:39:27;;;;;;;21.05;13.93;;;-0.30;98.00;;;;;;5017714;28;20043;-67
2023/01/18 10:42:00;;;;;;;19.33;11.85;;;-0.40;98.00;;;;;;5018239;28;20081;-68
2023/01/18 10:44:28;;;;;;;23.73;14.85;;;-0.40;98.00;;;;;;5016185;28;20442;-67
2023/01/18 10:46:59;;;;;;;15.60;12.10;;;-0.50;98.00;;;;;;5017202;28;20099;-67
2023/01/18 10:49:42;;;;;;;14.25;9.63;;;-0.50;98.00;;;;;;5016422;28;20288;-67
2023/01/18 10:52:23;;;;;;;18.60;11.85;;;-0.70;98.00;;;;;;5010517;28;20292;-67
2023/01/18 10:55:00;;;;;;;18.48;11.15;;;-0.70;98.00;;;;;;5021101;28;20033;-67
2023/01/18 10:57:28;;;;;;;17.77;12.10;;;-0.80;98.00;;;;;;5018912;28;20348;-67
2023/01/18 10:59:54;;;;;;;21.08;12.45;;;-0.80;98.00;;;;;;5015530;28;20389;-67
2023/01/18 11:02:36;;;;;;;21.45;11.98;;;-0.70;98.00;;;;;;5018037;28;20323;-67
2023/01/18 11:05:23;;;;;;;15.30;8.98;;;-0.60;98.00;;;;;;5015642;28;20030;-67
2023/01/18 11:08:10;;;;;;;17.02;11.20;;;-0.60;98.00;;;;;;5007063;28;20112;-67
2023/01/18 11:10:42;;;;;;;16.48;9.73;;;-0.50;98.00;;;;;;5016830;28;20435;-67
2023/01/18 11:13:48;;;;;;;17.38;8.65;;;-0.60;98.00;;;;;;5000374;28;20415;-67
2023/01/18 11:16:16;;;;;;;16.95;9.63;;;-0.50;98.00;;;;;;4936171;29;20030;-67
2023/01/18 11:19:04;;;;;;;16.30;8.52;;;-0.60;98.00;;;;;;4954845;29;20151;-67
2023/01/18 11:21:41;;;;;;;17.15;9.68;;;-0.50;98.00;;;;;;4994300;28;20066;-67
2023/01/18 11:24:11;;;;;;;12.18;7.65;;;-0.50;98.00;;;;;;5016459;28;20038;-67
2023/01/18 11:26:51;;;;;;;18.02;9.65;;;-0.40;98.00;;;;;;5017633;28;20107;-67
2023/01/18 11:29:17;;;;;;;20.50;10.05;;;-0.30;98.00;;;;;;5017612;28;20022;-68
2023/01/18 11:31:45;;;;;;;16.75;8.93;;;-0.20;98.00;;;;;;5017105;28;20054;-67
2023/01/18 11:34:25;;;;;;;26.08;14.07;;;-0.20;98.00;;;;;;5025399;28;20062;-67
2023/01/18 11:36:51;;;;;;;17.38;9.23;;;-0.10;98.00;;;;;;5017023;28;20025;-66
2023/01/18 11:39:35;;;;;;;18.52;10.20;;;-0.20;98.00;;;;;;5018180;28;20045;-67
2023/01/18 11:42:29;;;;;;;13.10;8.77;;;-0.20;98.00;;;;;;5018159;28;20041;-67
2023/01/18 11:45:17;;;;;;;15.95;9.20;;;-0.10;98.00;;;;;;5016547;28;20413;-67
2023/01/18 11:47:52;;;;;;;21.70;11.90;;;-0.20;98.00;;;;;;5017422;28;20419;-67
2023/01/18 11:50:28;;;;;;;14.70;8.30;;;-0.30;98.00;;;;;;5000642;28;20457;-67
2023/01/18 11:53:03;;;;;;;14.70;9.35;;;-0.30;98.00;;;;;;5016631;28;20092;-67
2023/01/18 11:55:35;;;;;;;17.85;11.00;;;-0.40;98.00;;;;;;5000080;28;20318;-67
2023/01/18 11:58:05;;;;;;;21.70;12.43;;;-0.40;98.00;;;;;;5000576;28;20482;-67
2023/01/18 12:00:44;;;;;;;26.42;13.60;;;-0.30;98.00;;;;;;5016740;28;20029;-68
2023/01/18 12:03:33;;;;;;;16.88;10.80;;;-0.30;98.00;;;;;;5016568;28;20022;-67
2023/01/18 12:06:11;;;;;;;15.73;9.60;;;-0.20;98.00;;;;;;5014766;28;20022;-68
2023/01/18 12:09:04;;;;;;;18.30;10.88;;;-0.30;98.00;;;;;;5014693;28;20387;-67
2023/01/18 12:11:47;;;;;;;17.98;10.45;;;-0.40;98.00;;;;;;5011787;28;20046;-67
2023/01/18 12:14:20;;;;;;;17.40;10.37;;;-0.30;98.00;;;;;;5016744;28;20021;-67
2023/01/18 12:16:51;;;;;;;23.30;12.82;;;-0.40;98.00;;;;;;5017585;28;20022;-68
2023/01/18 12:19:34;;;;;;;26.25;11.98;;;-0.50;98.00;;;;;;5017583;28;20030;-68
2023/01/18 12:22:23;;;;;;;16.35;9.57;;;-0.40;98.00;;;;;;4998793;28;20091;-68
2023/01/18 12:24:52;;;;;;;26.60;12.43;;;-0.50;98.00;;;;;;5016498;28;20145;-68
2023/01/18 12:27:40;;;;;;;17.63;9.18;;;-0.60;98.00;;;;;;5017263;28;20026;-68
2023/01/18 12:30:28;;;;;;;13.18;8.50;;;-0.60;98.00;;;;;;5017492;28;20030;-68
2023/01/18 12:33:13;;;;;;;15.95;9.25;;;-0.60;98.00;;;;;;4999908;28;20022;-68
2023/01/18 12:36:05;;;;;;;26.77;13.80;;;-0.60;98.00;;;;;;5015381;28;20456;-68
2023/01/18 12:38:32;;;;;;;37.42;16.50;;;-0.60;98.00;;;;;;5017052;28;20049;-68
2023/01/18 12:41:25;;;;;;;33.58;15.02;;;-0.60;98.00;;;;;;5017138;28;20033;-67
2023/01/18 12:44:15;;;;;;;23.60;13.48;;;-0.60;98.00;;;;;;5017279;28;20108;-67
2023/01/18 12:46:52;;;;;;;11.90;7.60;;;-0.50;98.00;;;;;;5015765;28;20033;-67
2023/01/18 12:49:20;;;;;;;13.27;8.05;;;-0.40;98.00;;;;;;5016899;28;20026;-67
2023/01/18 12:51:56;;;;;;;14.32;7.90;;;-0.40;98.00;;;;;;5015699;28;20057;-67
2023/01/18 12:54:33;;;;;;;25.52;14.65;;;-0.40;98.00;;;;;;5017008;28;20116;-69
2023/01/18 12:56:59;;;;;;;22.65;10.77;;;-0.40;98.00;;;;;;5015054;28;20025;-69
2023/01/18 12:59:45;;;;;;;16.02;9.65;;;-0.40;98.00;;;;;;5016891;28;20189;-68
2023/01/18 13:02:20;;;;;;;22.58;11.73;;;-0.30;98.00;;;;;;5016795;28;20026;-68
2023/01/18 13:05:00;;;;;;;19.75;10.85;;;-0.30;98.00;;;;;;5016717;28;20050;-68
2023/01/18 13:07:51;;;;;;;27.50;13.15;;;-0.30;98.00;;;;;;5014325;28;20022;-68
2023/01/18 13:10:27;;;;;;;20.05;10.98;;;-0.40;98.00;;;;;;5005739;28;20042;-68
2023/01/18 13:12:55;;;;;;;23.77;11.77;;;-0.50;98.00;;;;;;5016644;28;20030;-68
2023/01/18 13:15:38;;;;;;;22.60;11.02;;;-0.60;98.00;;;;;;4998320;28;20026;-68
2023/01/18 13:18:25;;;;;;;28.15;13.15;;;-0.60;98.00;;;;;;5016493;28;20030;-67
2023/01/18 13:21:11;;;;;;;31.73;15.32;;;-0.60;98.00;;;;;;4997831;28;20347;-68
2023/01/18 13:24:11;;;;;;;28.15;15.32;;;-0.60;98.00;;;;;;5016346;28;20080;-68